VIAR/ATQ METAR and TAF weather

Enter ICAO airport designator
Station Type Date Time Source
VIAR METAR 2020/01/19 00:30 UTC NOAA

VIAR 190030Z 00000KT 0000 R34/0125 FG VV/// 06/06 Q1019 NOSIG


Station Type Date Time Source
VIAR Decoded METAR 2020/01/19 00:30 UTC NOAA

Amritsar, India (VIAR) 31-38N 074-52E 234M
Jan 18, 2020 - 07:30 PM EST / 2020.01.19 0030 UTC
Wind: Calm:0
Visibility: less than 1 mile:0
Sky conditions: obscured
Weather: fog
Temperature: 42 F (6 C)
Dew Point: 42 F (6 C)
Relative Humidity: 100%
Pressure (altimeter): 30.09 in. Hg (1019 hPa)
ob: VIAR 190030Z 00000KT 0000 R34/0125 FG VV/// 06/06 Q1019 NOSIG
cycle: 0

Station Type Date Time Source
VIAR TAF 2020/01/18 18:18 UTC NOAA

TAF TAF VIAR 181701Z 1818/1924 VRB02KT 1000 BR FEW030 SCT100
BECMG 1820/1822 00000KT 0400 FG
BECMG 1900/1902 0050 FG VV///
BECMG 1904/1906 VRB02KT 0600 MIFG FEW100
BECMG 1908/1910 34006KT 1500 FU BR FEW030 SCT100
BECMG 1920/1922 VRB02KT 0800 MIFG FEW100

Example: see airport list